createdAt,value
2022-12-20T00:01:24.274Z,17.33
2022-12-20T00:03:52.754Z,17.90
2022-12-20T00:06:19.976Z,17.87
2022-12-20T00:08:47.029Z,17.90
2022-12-20T00:11:14.311Z,18.33
2022-12-20T00:13:41.314Z,18.30
2022-12-20T00:16:14.416Z,17.87
2022-12-20T00:18:42.324Z,17.30
2022-12-20T00:21:11.943Z,17.37
2022-12-20T00:23:39.696Z,18.40
2022-12-20T00:26:09.622Z,18.13
2022-12-20T00:28:37.493Z,18.23
2022-12-20T00:31:06.029Z,18.30
2022-12-20T00:33:33.846Z,18.30
2022-12-20T00:36:00.738Z,17.87
2022-12-20T00:38:27.883Z,17.60
2022-12-20T00:41:01.104Z,17.77
2022-12-20T00:43:28.958Z,18.10
2022-12-20T00:45:55.881Z,18.30
2022-12-20T00:48:23.225Z,18.03
2022-12-20T00:50:50.147Z,17.17
2022-12-20T00:53:21.146Z,17.97
2022-12-20T00:55:51.576Z,17.20
2022-12-20T00:58:18.400Z,18.27
2022-12-20T01:00:48.928Z,17.73
2022-12-20T01:03:20.631Z,17.33
2022-12-20T01:05:56.761Z,19.33
2022-12-20T01:08:24.512Z,18.50
2022-12-20T01:11:08.061Z,17.73
2022-12-20T01:13:38.199Z,18.00
2022-12-20T01:16:10.188Z,18.00
2022-12-20T01:18:37.060Z,18.83
2022-12-20T01:21:06.548Z,18.83
2022-12-20T01:23:33.382Z,17.73
2022-12-20T01:26:01.425Z,17.27
2022-12-20T01:28:28.820Z,17.37
2022-12-20T01:30:55.820Z,18.93
2022-12-20T01:33:23.152Z,17.77
2022-12-20T01:35:58.406Z,18.03
2022-12-20T01:38:25.353Z,17.93
2022-12-20T01:40:52.893Z,18.30
2022-12-20T01:43:20.783Z,18.47
2022-12-20T01:45:47.961Z,18.90
2022-12-20T01:48:22.679Z,18.50
2022-12-20T01:50:50.865Z,18.23
2022-12-20T01:53:19.659Z,18.37
2022-12-20T01:55:47.881Z,18.77
2022-12-20T01:58:16.355Z,18.60
2022-12-20T02:00:43.425Z,18.33
2022-12-20T02:03:12.986Z,17.90
2022-12-20T02:05:45.390Z,19.00
2022-12-20T02:08:14.719Z,19.57
2022-12-20T02:10:59.785Z,18.57
2022-12-20T02:13:57.520Z,17.33
2022-12-20T02:16:31.665Z,17.90
2022-12-20T02:19:31.542Z,17.30
2022-12-20T02:22:30.244Z,18.20
2022-12-20T02:25:15.470Z,17.70
2022-12-20T02:28:08.305Z,18.73
2022-12-20T02:30:41.815Z,17.53
2022-12-20T02:33:13.217Z,18.47
2022-12-20T02:35:41.423Z,18.90
2022-12-20T02:38:27.021Z,17.70
2022-12-20T02:40:59.045Z,18.10
2022-12-20T02:43:48.348Z,17.47
2022-12-20T02:46:16.905Z,16.93
2022-12-20T02:48:45.161Z,17.30
2022-12-20T02:51:12.691Z,18.57
2022-12-20T02:53:42.761Z,17.23
2022-12-20T02:56:14.037Z,16.73
2022-12-20T02:58:46.952Z,17.63
2022-12-20T03:01:23.545Z,18.37
2022-12-20T03:03:52.513Z,17.80
2022-12-20T03:06:19.334Z,18.03
2022-12-20T03:08:46.695Z,18.00
2022-12-20T03:11:14.266Z,17.37
2022-12-20T03:13:43.710Z,17.27
2022-12-20T03:16:10.996Z,17.63
2022-12-20T03:18:38.336Z,17.77
2022-12-20T03:21:05.248Z,16.80
2022-12-20T03:23:32.632Z,16.60
2022-12-20T03:25:59.578Z,16.67
2022-12-20T03:28:28.465Z,16.93
2022-12-20T03:30:55.255Z,16.73
2022-12-20T03:33:22.159Z,16.83
2022-12-20T03:35:49.223Z,17.20
2022-12-20T03:38:16.024Z,16.80
2022-12-20T03:40:42.770Z,16.70
2022-12-20T03:43:09.521Z,15.93
2022-12-20T03:45:36.301Z,16.20
2022-12-20T03:48:03.173Z,16.70
2022-12-20T03:50:31.431Z,17.03
2022-12-20T03:52:58.269Z,17.37
2022-12-20T03:55:25.075Z,15.93
2022-12-20T03:57:51.839Z,17.23
2022-12-20T04:00:18.989Z,16.70
2022-12-20T04:02:46.237Z,17.13
2022-12-20T04:05:13.221Z,16.30
2022-12-20T04:07:40.428Z,16.67
2022-12-20T04:10:07.877Z,16.87
2022-12-20T04:12:34.713Z,16.00
2022-12-20T04:15:01.555Z,16.07
2022-12-20T04:17:28.402Z,15.30
2022-12-20T04:19:55.184Z,16.37
2022-12-20T04:22:22.021Z,17.23
2022-12-20T04:24:49.155Z,16.60
2022-12-20T04:27:15.961Z,16.00
2022-12-20T04:29:42.765Z,16.17
2022-12-20T04:32:09.565Z,16.60
2022-12-20T04:34:36.376Z,17.43
2022-12-20T04:37:04.360Z,16.70
2022-12-20T04:39:31.168Z,16.07
2022-12-20T04:41:58.488Z,16.63
2022-12-20T04:44:25.266Z,16.07
2022-12-20T04:46:52.689Z,16.23
2022-12-20T04:49:19.617Z,16.07
2022-12-20T04:51:46.424Z,16.90
2022-12-20T04:54:13.304Z,15.60
2022-12-20T04:56:40.207Z,16.40
2022-12-20T04:59:07.093Z,17.13
2022-12-20T05:01:34.203Z,15.23
2022-12-20T05:04:01.149Z,15.37
2022-12-20T05:06:28.128Z,16.87
2022-12-20T05:08:55.299Z,16.10
2022-12-20T05:11:22.133Z,16.17
2022-12-20T05:13:48.925Z,15.93
2022-12-20T05:16:15.736Z,16.23
2022-12-20T05:18:48.435Z,15.10
2022-12-20T05:21:34.665Z,15.63
2022-12-20T05:24:20.061Z,15.53
2022-12-20T05:26:46.909Z,15.37
2022-12-20T05:29:13.717Z,16.13
2022-12-20T05:31:40.542Z,16.37
2022-12-20T05:34:07.396Z,15.27
2022-12-20T05:36:34.209Z,14.87
2022-12-20T05:39:04.368Z,15.10
2022-12-20T05:41:31.658Z,14.43
2022-12-20T05:43:58.922Z,14.90
2022-12-20T05:46:25.829Z,14.03
2022-12-20T05:48:52.713Z,14.53
2022-12-20T05:51:19.523Z,14.50
2022-12-20T05:53:46.309Z,14.37
2022-12-20T05:56:13.134Z,14.17
2022-12-20T05:58:40.429Z,13.83
2022-12-20T06:01:09.322Z,14.40
2022-12-20T06:03:36.824Z,14.47
2022-12-20T06:06:10.243Z,14.13
2022-12-20T06:08:40.581Z,14.17
2022-12-20T06:11:07.546Z,13.40
2022-12-20T06:13:34.387Z,13.67
2022-12-20T06:16:01.336Z,13.60
2022-12-20T06:18:28.502Z,13.47
2022-12-20T06:20:55.658Z,13.10
2022-12-20T06:23:22.459Z,12.83
2022-12-20T06:25:49.684Z,12.87
2022-12-20T06:28:21.722Z,12.80
2022-12-20T06:30:56.313Z,12.60
2022-12-20T06:33:23.310Z,12.80
2022-12-20T06:35:52.422Z,13.53
2022-12-20T06:38:19.300Z,12.13
2022-12-20T06:40:46.231Z,13.40
2022-12-20T06:43:13.016Z,13.00
2022-12-20T06:45:42.053Z,13.03
2022-12-20T06:48:10.012Z,12.93
2022-12-20T06:50:40.489Z,12.13
2022-12-20T06:53:07.471Z,12.70
2022-12-20T06:55:34.350Z,13.20
2022-12-20T06:58:01.445Z,12.70
2022-12-20T07:00:28.242Z,13.27
2022-12-20T07:02:55.163Z,12.40
2022-12-20T07:05:22.139Z,12.37
2022-12-20T07:07:49.063Z,12.30
2022-12-20T07:10:16.193Z,13.37
2022-12-20T07:12:47.776Z,11.87
2022-12-20T07:15:15.987Z,11.97
2022-12-20T07:17:42.879Z,13.43
2022-12-20T07:20:13.594Z,13.07
2022-12-20T07:22:41.456Z,13.23
2022-12-20T07:25:08.983Z,13.23
2022-12-20T07:27:35.915Z,11.67
2022-12-20T07:30:05.114Z,12.97
2022-12-20T07:32:32.198Z,12.67
2022-12-20T07:34:59.357Z,13.00
2022-12-20T07:37:28.262Z,12.93
2022-12-20T07:39:55.115Z,12.60
2022-12-20T07:42:21.924Z,12.17
2022-12-20T07:44:48.817Z,12.63
2022-12-20T07:47:16.117Z,11.40
2022-12-20T07:49:42.916Z,12.50
2022-12-20T07:52:12.959Z,12.17
2022-12-20T07:55:02.596Z,11.57
2022-12-20T07:57:44.657Z,12.40
2022-12-20T08:00:12.880Z,11.60
2022-12-20T08:02:52.111Z,11.77
2022-12-20T08:05:19.151Z,11.97
2022-12-20T08:07:51.105Z,12.07
2022-12-20T08:10:22.383Z,12.33
2022-12-20T08:12:50.716Z,12.40
2022-12-20T08:15:22.217Z,12.57
2022-12-20T08:17:49.801Z,11.57
2022-12-20T08:20:16.865Z,12.47
2022-12-20T08:22:43.740Z,12.57
2022-12-20T08:25:11.925Z,13.10
2022-12-20T08:27:39.350Z,12.17
2022-12-20T08:30:08.728Z,13.03
2022-12-20T08:32:36.407Z,12.73
2022-12-20T08:35:04.405Z,12.90
2022-12-20T08:37:31.247Z,12.30
2022-12-20T08:39:58.139Z,12.87
2022-12-20T08:42:25.094Z,12.50
2022-12-20T08:44:51.950Z,11.63
2022-12-20T08:47:18.809Z,12.87
2022-12-20T08:49:47.800Z,13.10
2022-12-20T08:52:15.258Z,12.40
2022-12-20T08:54:42.212Z,12.63
2022-12-20T08:57:12.589Z,12.20
2022-12-20T08:59:46.030Z,13.07
2022-12-20T09:02:17.917Z,12.63
2022-12-20T09:04:52.241Z,12.83
2022-12-20T09:07:22.074Z,13.73
2022-12-20T09:09:49.063Z,12.63
2022-12-20T09:12:15.917Z,12.80
2022-12-20T09:14:45.883Z,12.93
2022-12-20T09:17:18.504Z,13.20
2022-12-20T09:19:48.564Z,13.43
2022-12-20T09:22:18.641Z,12.93
2022-12-20T09:24:54.821Z,13.43
2022-12-20T09:27:22.519Z,13.30
2022-12-20T09:29:49.332Z,13.33
2022-12-20T09:32:19.116Z,13.67
2022-12-20T09:34:49.068Z,12.50
2022-12-20T09:37:15.933Z,14.00
2022-12-20T09:39:45.932Z,13.53
2022-12-20T09:42:15.190Z,14.23
2022-12-20T09:44:42.839Z,13.73
2022-12-20T09:47:18.433Z,13.57
2022-12-20T09:49:51.970Z,13.77
2022-12-20T09:52:57.885Z,13.33
2022-12-20T09:55:45.783Z,13.33
2022-12-20T09:58:32.586Z,14.00
2022-12-20T10:01:15.421Z,12.83
2022-12-20T10:03:45.939Z,13.30
2022-12-20T10:06:54.403Z,14.40
2022-12-20T10:09:39.262Z,13.77
2022-12-20T10:12:29.908Z,13.43
2022-12-20T10:14:56.823Z,14.20
2022-12-20T10:17:41.663Z,14.40
2022-12-20T10:20:11.341Z,14.23
2022-12-20T10:22:46.562Z,14.30
2022-12-20T10:25:25.055Z,14.97
2022-12-20T10:27:57.001Z,14.60
2022-12-20T10:30:28.683Z,14.40
2022-12-20T10:32:57.997Z,15.40
2022-12-20T10:35:31.422Z,14.80
2022-12-20T10:38:09.560Z,14.27
2022-12-20T10:43:44.507Z,14.90
2022-12-20T10:46:13.360Z,14.77
2022-12-20T10:48:46.338Z,14.27
2022-12-20T10:51:20.669Z,15.77
2022-12-20T10:54:20.252Z,14.77
2022-12-20T10:56:56.757Z,15.17
2022-12-20T10:59:34.848Z,14.87
2022-12-20T11:02:20.315Z,15.37
2022-12-20T11:05:00.036Z,14.63
2022-12-20T11:07:33.019Z,14.50
2022-12-20T11:10:21.023Z,14.87
2022-12-20T11:12:59.849Z,14.57
2022-12-20T11:15:35.155Z,14.53
2022-12-20T11:18:20.583Z,14.67
2022-12-20T11:20:58.625Z,15.47
2022-12-20T11:23:37.313Z,15.37
2022-12-20T11:26:15.996Z,14.83
2022-12-20T11:28:55.708Z,15.10
2022-12-20T11:31:48.857Z,14.90
2022-12-20T11:34:34.373Z,13.87
2022-12-20T11:37:26.235Z,14.93
2022-12-20T11:40:30.602Z,15.07
2022-12-20T11:43:12.475Z,14.47
2022-12-20T11:45:45.168Z,14.20
2022-12-20T11:48:34.908Z,15.03
2022-12-20T11:51:17.356Z,14.50
2022-12-20T11:54:09.486Z,15.23
2022-12-20T11:56:44.250Z,15.13
2022-12-20T11:59:24.693Z,15.57
2022-12-20T12:02:03.483Z,15.00
2022-12-20T12:04:34.599Z,15.23
2022-12-20T12:07:16.998Z,15.40
2022-12-20T12:10:13.049Z,14.40
2022-12-20T12:12:48.532Z,15.00
2022-12-20T12:15:16.858Z,14.77
2022-12-20T12:18:07.634Z,14.70
2022-12-20T12:21:17.856Z,16.00
2022-12-20T12:23:44.625Z,15.40
2022-12-20T12:26:22.701Z,15.53
2022-12-20T12:28:55.132Z,15.43
2022-12-20T12:31:40.003Z,15.10
2022-12-20T12:34:32.772Z,16.07
2022-12-20T12:37:20.140Z,15.20
2022-12-20T12:39:49.909Z,15.97
2022-12-20T12:42:28.648Z,15.73
2022-12-20T12:45:00.128Z,14.63
2022-12-20T12:47:49.325Z,15.37
2022-12-20T12:50:29.342Z,16.50
2022-12-20T12:52:59.775Z,15.77
2022-12-20T12:55:36.434Z,16.23
2022-12-20T12:58:22.525Z,14.90
2022-12-20T13:01:08.202Z,15.97
2022-12-20T13:03:48.937Z,15.70
2022-12-20T13:06:31.004Z,15.57
2022-12-20T13:09:03.971Z,16.10
2022-12-20T13:11:46.261Z,16.30
2022-12-20T13:14:25.836Z,16.67
2022-12-20T13:17:12.139Z,16.27
2022-12-20T13:19:48.972Z,15.70
2022-12-20T13:22:22.520Z,15.80
2022-12-20T13:25:03.047Z,16.03
2022-12-20T13:27:40.864Z,16.40
2022-12-20T13:30:07.707Z,15.70
2022-12-20T13:32:57.025Z,16.13
2022-12-20T13:35:27.966Z,15.93
2022-12-20T13:38:12.888Z,16.27
2022-12-20T13:40:42.388Z,15.63
2022-12-20T13:43:24.276Z,16.73
2022-12-20T13:46:09.727Z,16.33
2022-12-20T13:48:49.839Z,16.57
2022-12-20T13:51:22.918Z,16.17
2022-12-20T13:54:06.246Z,15.57
2022-12-20T13:56:49.445Z,16.10
2022-12-20T13:59:32.560Z,16.40
2022-12-20T14:02:10.754Z,17.17
2022-12-20T14:04:45.013Z,16.43
2022-12-20T14:07:18.208Z,16.40
2022-12-20T14:09:46.824Z,16.50
2022-12-20T14:12:23.272Z,16.40
2022-12-20T14:14:54.977Z,17.30
2022-12-20T14:17:33.535Z,17.40
2022-12-20T14:20:12.506Z,17.53
2022-12-20T14:22:51.159Z,15.63
2022-12-20T14:25:27.882Z,17.07
2022-12-20T14:27:55.879Z,16.73
2022-12-20T14:30:34.582Z,16.77
2022-12-20T14:33:01.701Z,16.00
2022-12-20T14:35:29.007Z,15.07
2022-12-20T14:37:58.600Z,16.77
2022-12-20T14:40:25.951Z,17.50
2022-12-20T14:42:53.090Z,17.27
2022-12-20T14:45:25.815Z,17.57
2022-12-20T14:48:09.555Z,17.43
2022-12-20T14:50:38.777Z,16.60
2022-12-20T14:53:18.179Z,16.97
2022-12-20T14:55:46.602Z,16.83
2022-12-20T14:58:33.782Z,17.50
2022-12-20T15:01:15.904Z,17.00
2022-12-20T15:03:57.421Z,16.53
2022-12-20T15:06:44.260Z,17.13
2022-12-20T15:09:11.246Z,17.40
2022-12-20T15:11:39.041Z,17.37
2022-12-20T15:14:22.841Z,17.40
2022-12-20T15:16:50.252Z,18.20
2022-12-20T15:19:17.147Z,17.27
2022-12-20T15:21:45.645Z,17.53
2022-12-20T15:24:21.997Z,17.30
2022-12-20T15:26:49.473Z,18.00
2022-12-20T15:29:18.217Z,17.87
2022-12-20T15:31:46.414Z,18.60
2022-12-20T15:34:28.735Z,20.80
2022-12-20T15:36:56.798Z,19.07
2022-12-20T15:39:23.616Z,18.07
2022-12-20T15:41:50.731Z,17.23
2022-12-20T15:44:23.623Z,18.47
2022-12-20T15:46:51.382Z,17.60
2022-12-20T15:49:22.007Z,17.97
2022-12-20T15:51:50.789Z,18.17
2022-12-20T15:54:27.660Z,17.77
2022-12-20T15:56:56.247Z,17.77
2022-12-20T16:02:28.778Z,17.27
2022-12-20T16:04:56.486Z,16.93
2022-12-20T16:07:24.149Z,17.33
2022-12-20T16:09:53.157Z,17.47
2022-12-20T16:12:34.438Z,18.03
2022-12-20T16:15:01.402Z,17.53
2022-12-20T16:17:28.447Z,17.50
2022-12-20T16:19:55.634Z,17.50
2022-12-20T16:22:24.072Z,17.33
2022-12-20T16:24:54.055Z,17.83
2022-12-20T16:27:21.682Z,17.10
2022-12-20T16:29:48.629Z,16.67
2022-12-20T16:32:18.168Z,18.40
2022-12-20T16:34:47.835Z,17.10
2022-12-20T16:37:14.743Z,17.67
2022-12-20T16:39:42.486Z,17.20
2022-12-20T16:42:15.060Z,17.40
2022-12-20T16:44:47.439Z,18.63
2022-12-20T16:47:17.176Z,17.50
2022-12-20T16:49:51.760Z,16.63
2022-12-20T16:52:21.973Z,17.33
2022-12-20T16:54:49.790Z,17.73
2022-12-20T16:57:16.716Z,17.37
2022-12-20T16:59:43.596Z,18.07
2022-12-20T17:02:26.168Z,17.60
2022-12-20T17:04:53.406Z,17.90
2022-12-20T17:07:21.761Z,18.43
2022-12-20T17:09:48.787Z,18.47
2022-12-20T17:12:17.536Z,18.97
2022-12-20T17:14:44.719Z,18.17
2022-12-20T17:17:11.755Z,17.97
2022-12-20T17:19:39.400Z,17.43
2022-12-20T17:24:51.477Z,18.53
2022-12-20T17:27:19.213Z,17.73
2022-12-20T17:29:46.134Z,18.57
2022-12-20T17:32:22.170Z,18.47
2022-12-20T17:34:49.128Z,17.60
2022-12-20T17:37:17.548Z,18.57
2022-12-20T17:39:44.434Z,17.67
2022-12-20T17:42:14.817Z,18.20
2022-12-20T17:44:41.961Z,18.30
2022-12-20T17:47:08.887Z,17.60
2022-12-20T17:49:35.765Z,17.83
2022-12-20T17:52:02.594Z,18.60
2022-12-20T17:54:36.619Z,18.77
2022-12-20T17:57:06.150Z,17.87
2022-12-20T17:59:33.101Z,17.87
2022-12-20T18:02:00.175Z,19.17
2022-12-20T18:04:27.977Z,18.30
2022-12-20T18:06:54.936Z,18.80
2022-12-20T18:09:22.183Z,18.03
2022-12-20T18:11:49.571Z,17.77
2022-12-20T18:14:16.564Z,18.20
2022-12-20T18:16:43.586Z,18.10
2022-12-20T18:19:19.112Z,18.93
2022-12-20T18:21:46.165Z,18.17
2022-12-20T18:24:15.310Z,18.53
2022-12-20T18:26:43.029Z,18.07
2022-12-20T18:29:11.162Z,18.10
2022-12-20T18:31:38.802Z,18.43
2022-12-20T18:34:06.010Z,18.20
2022-12-20T18:36:35.706Z,17.77
2022-12-20T18:39:05.228Z,18.30
2022-12-20T18:41:32.967Z,17.57
2022-12-20T18:44:01.592Z,18.27
2022-12-20T18:46:29.413Z,17.30
2022-12-20T18:48:58.835Z,17.87
2022-12-20T18:51:28.527Z,17.40
2022-12-20T18:53:56.958Z,17.93
2022-12-20T18:56:32.284Z,17.37
2022-12-20T18:59:06.306Z,17.90
2022-12-20T19:01:38.629Z,17.10
2022-12-20T19:04:07.454Z,18.27
2022-12-20T19:06:35.725Z,17.97
2022-12-20T19:09:07.159Z,18.30
2022-12-20T19:11:34.465Z,18.43
2022-12-20T19:14:01.541Z,18.53
2022-12-20T19:16:34.737Z,17.87
2022-12-20T19:19:05.039Z,18.13
2022-12-20T19:21:34.142Z,17.60
2022-12-20T19:24:05.238Z,17.77
2022-12-20T19:26:32.474Z,17.20
2022-12-20T19:28:59.355Z,18.40
2022-12-20T19:31:29.300Z,18.20
2022-12-20T19:34:00.378Z,17.10
2022-12-20T19:36:41.036Z,17.40
2022-12-20T19:39:12.705Z,17.07
2022-12-20T19:41:40.204Z,17.00
2022-12-20T19:44:07.328Z,17.17
2022-12-20T19:46:34.246Z,17.87
2022-12-20T19:49:01.436Z,17.33
2022-12-20T19:51:28.954Z,18.00
2022-12-20T19:53:57.631Z,17.33
2022-12-20T19:56:27.243Z,16.63
2022-12-20T19:58:55.364Z,17.30
2022-12-20T20:01:25.938Z,17.37
2022-12-20T20:03:54.706Z,17.10
2022-12-20T20:06:23.132Z,16.77
2022-12-20T20:08:50.496Z,17.23
2022-12-20T20:11:19.081Z,16.83
2022-12-20T20:13:46.143Z,16.47
2022-12-20T20:16:19.991Z,17.23
2022-12-20T20:18:49.180Z,16.40
2022-12-20T20:21:21.068Z,17.03
2022-12-20T20:23:49.187Z,16.80
2022-12-20T20:26:19.114Z,15.97
2022-12-20T20:28:46.254Z,16.83
2022-12-20T20:31:15.665Z,17.23
2022-12-20T20:33:43.865Z,17.13
2022-12-20T20:36:14.526Z,16.70
2022-12-20T20:38:41.535Z,17.00
2022-12-20T20:41:09.299Z,16.60
2022-12-20T20:43:37.986Z,14.73
2022-12-20T20:46:07.374Z,16.70
2022-12-20T20:48:34.828Z,15.87
2022-12-20T20:51:02.094Z,16.50
2022-12-20T20:53:33.556Z,16.40
2022-12-20T20:56:05.150Z,16.97
2022-12-20T20:58:32.871Z,15.90
2022-12-20T21:01:01.704Z,16.50
2022-12-20T21:03:29.877Z,17.33
2022-12-20T21:08:43.982Z,16.27
2022-12-20T21:11:12.221Z,16.30
2022-12-20T21:13:39.272Z,16.17
2022-12-20T21:16:20.382Z,15.80
2022-12-20T21:18:55.836Z,16.47
2022-12-20T21:21:23.802Z,16.47
2022-12-20T21:23:51.391Z,17.80
2022-12-20T21:26:20.438Z,16.83
2022-12-20T21:28:47.525Z,17.27
2022-12-20T21:31:17.079Z,17.23
2022-12-20T21:33:46.075Z,16.27
2022-12-20T21:36:16.144Z,15.93
2022-12-20T21:38:52.020Z,16.57
2022-12-20T21:41:23.227Z,16.83
2022-12-20T21:43:51.455Z,16.50
2022-12-20T21:46:18.466Z,16.90
2022-12-20T21:48:45.329Z,17.47
2022-12-20T21:51:14.530Z,17.23
2022-12-20T21:53:50.136Z,16.43
2022-12-20T21:56:18.296Z,17.37
2022-12-20T21:58:45.985Z,17.20
2022-12-20T22:01:16.101Z,16.97
2022-12-20T22:03:44.443Z,16.47
2022-12-20T22:06:11.912Z,17.13
2022-12-20T22:08:38.767Z,16.73
2022-12-20T22:11:08.219Z,16.33
2022-12-20T22:13:41.134Z,16.67
2022-12-20T22:16:13.737Z,16.83
2022-12-20T22:18:41.362Z,17.13
2022-12-20T22:21:11.574Z,18.00
2022-12-20T22:23:39.302Z,16.63
2022-12-20T22:26:22.519Z,17.10
2022-12-20T22:29:11.098Z,16.93
2022-12-20T22:31:38.127Z,17.23
2022-12-20T22:34:05.129Z,16.93
2022-12-20T22:36:35.065Z,17.07
2022-12-20T22:39:02.065Z,18.27
2022-12-20T22:41:32.400Z,17.03
2022-12-20T22:43:59.899Z,16.63
2022-12-20T22:49:17.587Z,16.93
2022-12-20T22:51:51.279Z,17.37
2022-12-20T22:54:26.155Z,16.73
2022-12-20T22:56:53.008Z,16.90
2022-12-20T22:59:19.961Z,16.63
2022-12-20T23:01:46.873Z,16.77
2022-12-20T23:04:15.115Z,17.10
2022-12-20T23:06:41.907Z,16.97
2022-12-20T23:09:09.013Z,18.03
2022-12-20T23:11:54.891Z,17.37
2022-12-20T23:14:41.153Z,17.10
2022-12-20T23:17:09.664Z,16.93
2022-12-20T23:19:55.103Z,16.47
2022-12-20T23:22:41.656Z,17.50
2022-12-20T23:25:11.913Z,17.13
2022-12-20T23:27:39.767Z,17.97
2022-12-20T23:30:08.542Z,17.13
2022-12-20T23:32:35.807Z,16.10
2022-12-20T23:35:08.331Z,16.97
2022-12-20T23:37:39.253Z,18.03
2022-12-20T23:40:09.072Z,17.50
2022-12-20T23:42:36.216Z,16.37
2022-12-20T23:45:03.301Z,16.60
2022-12-20T23:47:31.669Z,16.93
2022-12-20T23:49:58.449Z,17.60
2022-12-20T23:52:25.262Z,16.63
2022-12-20T23:54:53.181Z,16.80
2022-12-20T23:57:20.974Z,17.20
2022-12-20T23:59:47.757Z,16.80
